< < Back
Terminal Aerodrome Forecast


Current Version              Previous Versions:   1  2  3  4  5  6  7  8  9  

Terminal Aerodrome Forecast

649
FTUS44 KBMX 281137
TAFANB
TAF
KANB 281137Z 2812/2912 06003KT P6SM FEW250
     FM281600 08007KT P6SM SCT050
     FM282000 07007KT P6SM VCTS SCT050CB
     FM290000 06003KT P6SM SCT250=

Latest METAR

149
SAUS70 KWBC 281400 RRD
MTRANB
METAR KANB 281353Z AUTO 07006KT 10SM CLR 27/20 A3016 RMK AO2 SLP202
T02720200


USA.gov is the U.S. government's official web portal to all federal, state and local government web resources and services.